createdAt,value
2019-03-22T00:01:15.258Z,1.50
2019-03-22T00:03:42.889Z,1.27
2019-03-22T00:06:10.900Z,1.60
2019-03-22T00:08:38.823Z,1.60
2019-03-22T00:11:06.916Z,1.30
2019-03-22T00:13:34.760Z,1.47
2019-03-22T00:16:03.895Z,1.40
2019-03-22T00:18:32.155Z,1.50
2019-03-22T00:20:59.548Z,1.50
2019-03-22T00:23:28.728Z,1.40
2019-03-22T00:25:56.568Z,1.70
2019-03-22T00:28:24.093Z,2.20
2019-03-22T00:30:52.727Z,1.90
2019-03-22T00:33:20.386Z,1.50
2019-03-22T00:35:47.972Z,1.60
2019-03-22T00:38:16.669Z,2.03
2019-03-22T00:40:44.175Z,2.10
2019-03-22T00:43:13.355Z,5.30
2019-03-22T00:45:40.908Z,6.17
2019-03-22T00:48:10.635Z,9.43
2019-03-22T00:50:38.027Z,2.30
2019-03-22T00:53:05.432Z,1.77
2019-03-22T00:55:33.595Z,1.73
2019-03-22T00:58:01.255Z,1.83
2019-03-22T01:00:29.463Z,2.27
2019-03-22T01:02:58.767Z,1.70
2019-03-22T01:05:28.220Z,2.60
2019-03-22T01:07:56.311Z,2.20
2019-03-22T01:10:24.551Z,1.60
2019-03-22T01:12:52.883Z,2.07
2019-03-22T01:15:21.305Z,2.07
2019-03-22T01:17:49.235Z,1.97
2019-03-22T01:20:16.847Z,1.83
2019-03-22T01:22:45.687Z,2.00
2019-03-22T01:25:13.399Z,2.57
2019-03-22T01:27:42.450Z,2.00
2019-03-22T01:30:12.669Z,2.47
2019-03-22T01:32:41.603Z,2.80
2019-03-22T01:35:10.772Z,2.10
2019-03-22T01:37:38.411Z,2.40
2019-03-22T01:40:09.155Z,2.00
2019-03-22T01:42:36.903Z,2.37
2019-03-22T01:45:06.291Z,2.50
2019-03-22T01:47:34.188Z,2.17
2019-03-22T01:50:02.238Z,2.27
2019-03-22T01:52:30.627Z,2.43
2019-03-22T01:54:59.123Z,2.43
2019-03-22T01:57:28.177Z,2.30
2019-03-22T01:59:55.676Z,2.33
2019-03-22T02:02:23.735Z,2.20
2019-03-22T02:04:53.027Z,2.40
2019-03-22T02:07:21.311Z,2.27
2019-03-22T02:09:50.347Z,2.20
2019-03-22T02:12:18.003Z,2.23
2019-03-22T02:14:46.247Z,2.40
2019-03-22T02:17:14.287Z,2.10
2019-03-22T02:19:42.702Z,3.10
2019-03-22T02:22:10.287Z,2.17
2019-03-22T02:24:38.343Z,3.20
2019-03-22T02:27:08.039Z,1.70
2019-03-22T02:29:35.779Z,2.40
2019-03-22T02:32:03.706Z,1.90
2019-03-22T02:34:31.364Z,2.30
2019-03-22T02:36:59.796Z,2.13
2019-03-22T02:39:27.619Z,2.17
2019-03-22T02:41:55.380Z,2.87
2019-03-22T02:44:23.297Z,2.27
2019-03-22T02:46:52.131Z,2.40
2019-03-22T02:49:20.041Z,2.30
2019-03-22T02:51:47.705Z,2.47
2019-03-22T02:54:16.897Z,2.10
2019-03-22T02:56:44.431Z,2.87
2019-03-22T02:59:13.301Z,2.20
2019-03-22T03:01:42.305Z,3.57
2019-03-22T03:04:10.440Z,4.63
2019-03-22T03:06:38.049Z,6.20
2019-03-22T03:09:06.448Z,2.50
2019-03-22T03:11:35.668Z,2.47
2019-03-22T03:14:03.598Z,3.80
2019-03-22T03:16:31.825Z,3.53
2019-03-22T03:18:59.625Z,3.37
2019-03-22T03:21:28.763Z,4.13
2019-03-22T03:23:56.314Z,2.17
2019-03-22T03:26:24.601Z,2.43
2019-03-22T03:28:52.988Z,2.30
2019-03-22T03:31:21.023Z,2.10
2019-03-22T03:33:48.853Z,2.83
2019-03-22T03:36:17.616Z,2.33
2019-03-22T03:38:46.204Z,2.10
2019-03-22T03:41:13.842Z,2.30
2019-03-22T03:43:41.837Z,2.00
2019-03-22T03:46:10.353Z,2.33
2019-03-22T03:48:37.903Z,1.93
2019-03-22T03:51:05.814Z,2.53
2019-03-22T03:53:33.981Z,2.40
2019-03-22T03:56:01.420Z,2.27
2019-03-22T03:58:29.665Z,2.23
2019-03-22T04:00:57.885Z,1.90
2019-03-22T04:03:25.869Z,2.27
2019-03-22T04:05:53.564Z,2.00
2019-03-22T04:08:22.423Z,2.47
2019-03-22T04:10:50.998Z,2.60
2019-03-22T04:13:18.588Z,2.37
2019-03-22T04:15:47.299Z,2.30
2019-03-22T04:18:15.779Z,2.30
2019-03-22T04:20:44.621Z,2.07
2019-03-22T04:23:12.106Z,2.00
2019-03-22T04:25:39.636Z,2.50
2019-03-22T04:28:08.564Z,2.43
2019-03-22T04:30:36.673Z,2.40
2019-03-22T04:33:06.558Z,2.40
2019-03-22T04:35:35.404Z,2.00
2019-03-22T04:38:03.305Z,2.37
2019-03-22T04:40:32.461Z,2.50
2019-03-22T04:43:01.479Z,2.00
2019-03-22T04:45:30.564Z,2.60
2019-03-22T04:48:10.903Z,2.07
2019-03-22T04:50:41.615Z,2.00
2019-03-22T04:53:14.383Z,2.30
2019-03-22T04:55:44.479Z,2.33
2019-03-22T04:58:13.556Z,2.23
2019-03-22T05:00:42.596Z,2.00
2019-03-22T05:03:11.847Z,2.60
2019-03-22T05:05:39.947Z,2.80
2019-03-22T05:08:08.712Z,3.23
2019-03-22T05:10:37.251Z,2.77
2019-03-22T05:13:07.980Z,2.87
2019-03-22T05:15:37.958Z,3.60
2019-03-22T05:18:07.371Z,2.93
2019-03-22T05:20:37.263Z,3.40
2019-03-22T05:23:06.699Z,2.43
2019-03-22T05:25:36.052Z,3.17
2019-03-22T05:28:08.456Z,3.50
2019-03-22T05:31:08.696Z,3.07
2019-03-22T05:33:36.743Z,3.30
2019-03-22T05:36:04.939Z,3.13
2019-03-22T05:38:34.489Z,2.10
2019-03-22T05:41:03.879Z,2.40
2019-03-22T05:43:31.395Z,2.30
2019-03-22T05:45:59.403Z,2.80
2019-03-22T05:48:27.036Z,2.27
2019-03-22T05:50:56.167Z,2.60
2019-03-22T05:53:24.206Z,2.50
2019-03-22T05:55:53.095Z,2.87
2019-03-22T05:58:21.051Z,3.60
2019-03-22T06:00:48.815Z,3.73
2019-03-22T06:03:16.497Z,3.17
2019-03-22T06:05:46.023Z,3.63
2019-03-22T06:08:14.169Z,2.97
2019-03-22T06:10:41.687Z,2.30
2019-03-22T06:13:09.226Z,2.00
2019-03-22T06:15:36.913Z,2.60
2019-03-22T06:18:04.728Z,2.63
2019-03-22T06:20:33.812Z,3.37
2019-03-22T06:23:01.303Z,3.00
2019-03-22T06:25:28.760Z,3.03
2019-03-22T06:27:56.284Z,3.20
2019-03-22T06:30:24.987Z,2.77
2019-03-22T06:32:53.624Z,3.10
2019-03-22T06:35:21.136Z,3.17
2019-03-22T06:37:50.096Z,2.80
2019-03-22T06:40:18.035Z,3.20
2019-03-22T06:42:45.910Z,3.57
2019-03-22T06:45:13.533Z,3.10
2019-03-22T06:47:41.070Z,3.10
2019-03-22T06:50:10.527Z,2.27
2019-03-22T06:52:38.200Z,3.17
2019-03-22T06:55:07.115Z,3.03
2019-03-22T06:57:35.968Z,2.60
2019-03-22T07:00:06.862Z,2.80
2019-03-22T07:02:35.126Z,2.57
2019-03-22T07:05:04.107Z,3.10
2019-03-22T07:07:32.236Z,3.00
2019-03-22T07:10:01.220Z,2.90
2019-03-22T07:12:29.739Z,3.00
2019-03-22T07:14:57.787Z,3.13
2019-03-22T07:17:25.827Z,3.40
2019-03-22T07:19:53.795Z,3.90
2019-03-22T07:22:21.447Z,3.50
2019-03-22T07:24:50.329Z,3.23
2019-03-22T07:27:19.466Z,3.57
2019-03-22T07:29:48.526Z,4.27
2019-03-22T07:32:17.098Z,4.27
2019-03-22T07:34:45.452Z,4.10
2019-03-22T07:37:14.323Z,4.10
2019-03-22T07:39:42.272Z,4.43
2019-03-22T07:42:10.550Z,3.90
2019-03-22T07:44:38.833Z,4.27
2019-03-22T07:47:06.996Z,4.47
2019-03-22T07:49:35.916Z,4.70
2019-03-22T07:52:04.404Z,4.30
2019-03-22T07:54:32.368Z,4.13
2019-03-22T07:57:00.712Z,5.10
2019-03-22T07:59:28.995Z,4.23
2019-03-22T08:01:56.658Z,4.30
2019-03-22T08:04:25.749Z,4.63
2019-03-22T08:06:53.737Z,5.00
2019-03-22T08:09:21.252Z,5.10
2019-03-22T08:11:49.171Z,4.80
2019-03-22T08:14:18.011Z,4.70
2019-03-22T08:16:46.655Z,4.67
2019-03-22T08:19:14.731Z,4.27
2019-03-22T08:21:42.763Z,4.30
2019-03-22T08:24:11.483Z,4.73
2019-03-22T08:26:39.087Z,4.10
2019-03-22T08:29:06.988Z,4.83
2019-03-22T08:31:36.867Z,4.63
2019-03-22T08:34:05.199Z,4.03
2019-03-22T08:36:34.619Z,4.00
2019-03-22T08:39:04.447Z,4.83
2019-03-22T08:41:32.365Z,4.10
2019-03-22T08:44:02.849Z,4.53
2019-03-22T08:46:30.988Z,4.30
2019-03-22T08:49:00.501Z,4.10
2019-03-22T08:51:30.023Z,4.20
2019-03-22T08:53:59.523Z,4.50
2019-03-22T08:56:27.796Z,4.33
2019-03-22T08:58:55.885Z,4.10
2019-03-22T09:01:24.856Z,4.83
2019-03-22T09:03:52.731Z,4.60
2019-03-22T09:06:20.680Z,4.40
2019-03-22T09:08:50.195Z,5.20
2019-03-22T09:11:19.543Z,4.30
2019-03-22T09:13:48.099Z,4.40
2019-03-22T09:16:15.876Z,4.90
2019-03-22T09:18:43.875Z,5.20
2019-03-22T09:21:13.236Z,4.73
2019-03-22T09:23:40.960Z,4.77
2019-03-22T09:26:09.064Z,5.33
2019-03-22T09:28:36.679Z,5.00
2019-03-22T09:31:10.127Z,5.43
2019-03-22T09:33:33.612Z,5.17
2019-03-22T09:36:01.863Z,4.70
2019-03-22T09:38:29.427Z,4.77
2019-03-22T09:40:57.159Z,5.10
2019-03-22T09:43:26.344Z,5.00
2019-03-22T09:45:55.065Z,4.80
2019-03-22T09:48:22.653Z,5.43
2019-03-22T09:50:50.394Z,5.07
2019-03-22T09:53:18.345Z,5.90
2019-03-22T09:55:48.095Z,5.10
2019-03-22T09:58:15.585Z,5.63
2019-03-22T10:00:43.727Z,5.63
2019-03-22T10:03:11.259Z,5.30
2019-03-22T10:05:39.826Z,5.03
2019-03-22T10:08:09.211Z,4.60
2019-03-22T10:10:37.713Z,5.47
2019-03-22T10:13:05.441Z,6.00
2019-03-22T10:15:33.615Z,5.13
2019-03-22T10:18:03.656Z,5.27
2019-03-22T10:20:31.263Z,5.07
2019-03-22T10:22:59.318Z,4.63
2019-03-22T10:25:27.270Z,4.80
2019-03-22T10:27:55.581Z,4.63
2019-03-22T10:30:23.742Z,5.97
2019-03-22T10:32:51.879Z,5.00
2019-03-22T10:35:25.940Z,5.27
2019-03-22T10:37:49.541Z,4.83
2019-03-22T10:40:17.512Z,4.40
2019-03-22T10:42:45.013Z,5.07
2019-03-22T10:45:12.607Z,5.40
2019-03-22T10:47:42.095Z,5.83
2019-03-22T10:50:10.798Z,4.57
2019-03-22T10:52:38.641Z,5.13
2019-03-22T10:55:23.037Z,4.90
2019-03-22T10:57:39.982Z,5.60
2019-03-22T11:00:07.119Z,5.33
2019-03-22T11:02:35.562Z,5.00
2019-03-22T11:05:06.370Z,4.57
2019-03-22T11:07:34.929Z,5.50
2019-03-22T11:10:04.743Z,6.03
2019-03-22T11:12:32.159Z,5.80
2019-03-22T11:14:59.888Z,5.67
2019-03-22T11:17:27.416Z,5.10
2019-03-22T11:19:57.552Z,5.03
2019-03-22T11:22:25.156Z,5.30
2019-03-22T11:24:53.627Z,5.13
2019-03-22T11:27:23.199Z,5.07
2019-03-22T11:29:50.795Z,5.50
2019-03-22T11:32:18.603Z,5.00
2019-03-22T11:34:46.271Z,5.43
2019-03-22T11:37:14.873Z,5.37
2019-03-22T11:39:43.816Z,5.30
2019-03-22T11:42:12.077Z,5.47
2019-03-22T11:44:41.135Z,4.83
2019-03-22T11:47:08.911Z,5.97
2019-03-22T11:49:38.176Z,6.03
2019-03-22T11:52:05.989Z,5.50
2019-03-22T11:54:33.735Z,5.17
2019-03-22T11:57:01.256Z,5.37
2019-03-22T11:59:30.375Z,6.00
2019-03-22T12:01:59.338Z,6.30
2019-03-22T12:04:28.555Z,5.67
2019-03-22T12:06:56.087Z,5.33
2019-03-22T12:09:24.731Z,5.13
2019-03-22T12:11:52.449Z,5.80
2019-03-22T12:14:20.400Z,5.23
2019-03-22T12:16:48.056Z,5.93
2019-03-22T12:19:15.696Z,5.87
2019-03-22T12:21:44.055Z,5.53
2019-03-22T12:24:11.575Z,6.30
2019-03-22T12:26:39.364Z,5.47
2019-03-22T12:29:06.896Z,5.40
2019-03-22T12:31:36.440Z,5.40
2019-03-22T12:34:04.407Z,5.30
2019-03-22T12:36:33.592Z,5.13
2019-03-22T12:39:02.403Z,5.40
2019-03-22T12:41:29.899Z,6.40
2019-03-22T12:43:58.207Z,5.67
2019-03-22T12:46:25.739Z,4.63
2019-03-22T12:48:55.264Z,5.00
2019-03-22T12:51:22.924Z,3.90
2019-03-22T12:53:52.364Z,4.10
2019-03-22T12:56:21.971Z,5.10
2019-03-22T12:58:50.752Z,4.67
2019-03-22T13:01:19.980Z,4.53
2019-03-22T13:03:48.047Z,4.87
2019-03-22T13:06:15.679Z,4.17
2019-03-22T13:08:43.256Z,4.90
2019-03-22T13:11:12.639Z,5.87
2019-03-22T13:13:41.671Z,5.10
2019-03-22T13:16:10.947Z,5.60
2019-03-22T13:18:49.638Z,5.37
2019-03-22T13:21:09.248Z,5.80
2019-03-22T13:23:36.867Z,5.50
2019-03-22T13:26:04.767Z,4.80
2019-03-22T13:28:32.712Z,5.03
2019-03-22T13:31:02.114Z,5.80
2019-03-22T13:33:30.191Z,5.20
2019-03-22T13:35:58.399Z,4.57
2019-03-22T13:38:26.424Z,5.17
2019-03-22T13:40:54.441Z,5.03
2019-03-22T13:43:24.320Z,4.93
2019-03-22T13:45:52.963Z,4.83
2019-03-22T13:48:21.280Z,4.80
2019-03-22T13:50:51.121Z,5.10
2019-03-22T13:53:19.231Z,5.30
2019-03-22T13:55:48.650Z,6.00
2019-03-22T13:58:16.924Z,4.87
2019-03-22T14:00:45.652Z,5.43
2019-03-22T14:03:13.153Z,5.47
2019-03-22T14:05:41.158Z,6.40
2019-03-22T14:08:11.203Z,5.20
2019-03-22T14:10:40.725Z,5.20
2019-03-22T14:13:08.530Z,5.27
2019-03-22T14:15:36.232Z,4.23
2019-03-22T14:18:04.461Z,4.80
2019-03-22T14:20:32.004Z,5.63
2019-03-22T14:23:01.086Z,4.60
2019-03-22T14:25:28.715Z,5.47
2019-03-22T14:27:56.295Z,5.97
2019-03-22T14:30:24.039Z,5.30
2019-03-22T14:32:51.695Z,6.10
2019-03-22T14:35:19.647Z,6.10
2019-03-22T14:37:48.400Z,5.33
2019-03-22T14:40:18.359Z,5.20
2019-03-22T14:42:46.733Z,4.97
2019-03-22T14:45:15.377Z,4.97
2019-03-22T14:47:43.355Z,5.73
2019-03-22T14:50:11.462Z,6.20
2019-03-22T14:52:39.139Z,6.13
2019-03-22T14:55:07.143Z,6.93
2019-03-22T14:57:35.258Z,10.70
2019-03-22T15:00:04.519Z,5.80
2019-03-22T15:02:32.087Z,5.33
2019-03-22T15:05:01.867Z,5.77
2019-03-22T15:07:31.283Z,4.33
2019-03-22T15:09:59.371Z,4.50
2019-03-22T15:12:27.338Z,4.93
2019-03-22T15:15:20.975Z,4.93
2019-03-22T15:18:03.712Z,5.63
2019-03-22T15:20:51.124Z,6.20
2019-03-22T15:23:39.031Z,4.80
2019-03-22T15:26:44.476Z,5.47
2019-03-22T15:29:50.673Z,4.57
2019-03-22T15:32:47.915Z,3.83
2019-03-22T15:35:26.975Z,4.77
2019-03-22T15:38:13.392Z,4.97
2019-03-22T15:40:41.094Z,4.63
2019-03-22T15:43:10.171Z,4.57
2019-03-22T15:45:37.903Z,4.23
2019-03-22T15:48:06.420Z,4.00
2019-03-22T15:50:34.215Z,4.97
2019-03-22T15:53:02.036Z,4.37
2019-03-22T15:55:29.947Z,4.50
2019-03-22T15:57:57.941Z,5.87
2019-03-22T16:00:26.088Z,4.50
2019-03-22T16:02:54.255Z,5.03
2019-03-22T16:05:21.927Z,3.73
2019-03-22T16:07:50.462Z,4.30
2019-03-22T16:10:19.065Z,4.13
2019-03-22T16:12:46.948Z,4.03
2019-03-22T16:15:15.858Z,3.90
2019-03-22T16:17:43.430Z,5.53
2019-03-22T16:20:12.101Z,10.63
2019-03-22T16:22:39.727Z,11.00
2019-03-22T16:25:07.855Z,5.00
2019-03-22T16:27:35.802Z,4.23
2019-03-22T16:30:06.347Z,3.70
2019-03-22T16:32:35.628Z,4.10
2019-03-22T16:35:05.003Z,4.07
2019-03-22T16:37:32.908Z,3.57
2019-03-22T16:40:01.921Z,3.63
2019-03-22T16:42:29.723Z,3.40
2019-03-22T16:44:57.233Z,3.10
2019-03-22T16:47:25.044Z,2.80
2019-03-22T16:49:53.059Z,3.93
2019-03-22T16:52:20.811Z,3.40
2019-03-22T16:54:48.987Z,6.90
2019-03-22T16:57:17.062Z,6.90
2019-03-22T16:59:46.011Z,4.87
2019-03-22T17:02:13.524Z,4.10
2019-03-22T17:04:42.857Z,3.90
2019-03-22T17:07:10.367Z,2.37
2019-03-22T17:09:39.463Z,2.50
2019-03-22T17:12:09.035Z,3.00
2019-03-22T17:14:37.263Z,2.63
2019-03-22T17:17:05.067Z,2.80
2019-03-22T17:19:32.483Z,3.53
2019-03-22T17:22:01.019Z,2.97
2019-03-22T17:24:28.555Z,3.63
2019-03-22T17:26:56.212Z,3.90
2019-03-22T17:29:24.661Z,3.90
2019-03-22T17:31:53.380Z,4.83
2019-03-22T17:34:22.236Z,17.47
2019-03-22T17:36:51.151Z,7.40
2019-03-22T17:39:18.819Z,2.83
2019-03-22T17:41:46.848Z,2.10
2019-03-22T17:44:14.469Z,1.93
2019-03-22T17:46:42.416Z,2.07
2019-03-22T17:49:10.639Z,2.80
2019-03-22T17:51:38.847Z,2.70
2019-03-22T17:54:06.235Z,2.53
2019-03-22T17:56:34.563Z,2.80
2019-03-22T17:59:02.515Z,3.20
2019-03-22T18:01:30.775Z,3.30
2019-03-22T18:03:58.787Z,3.70
2019-03-22T18:06:26.923Z,4.80
2019-03-22T18:08:55.895Z,4.73
2019-03-22T18:11:23.815Z,3.80
2019-03-22T18:13:51.667Z,3.60
2019-03-22T18:16:20.107Z,3.53
2019-03-22T18:18:47.854Z,3.57
2019-03-22T18:21:19.941Z,2.50
2019-03-22T18:23:48.967Z,3.60
2019-03-22T18:26:16.503Z,2.83
2019-03-22T18:28:44.961Z,3.67
2019-03-22T18:31:12.471Z,4.23
2019-03-22T18:33:41.281Z,5.60
2019-03-22T18:36:09.055Z,11.20
2019-03-22T18:38:36.772Z,3.97
2019-03-22T18:41:04.727Z,3.43
2019-03-22T18:43:32.946Z,4.27
2019-03-22T18:46:00.964Z,4.03
2019-03-22T18:48:29.524Z,4.57
2019-03-22T18:50:57.315Z,4.37
2019-03-22T18:53:24.816Z,3.80
2019-03-22T18:55:53.926Z,4.53
2019-03-22T18:58:23.789Z,3.20
2019-03-22T19:00:51.952Z,2.43
2019-03-22T19:03:20.492Z,2.90
2019-03-22T19:05:49.675Z,2.23
2019-03-22T19:08:17.531Z,2.00
2019-03-22T19:10:45.683Z,2.10
2019-03-22T19:13:15.952Z,2.53
2019-03-22T19:15:44.794Z,2.40
2019-03-22T19:18:12.567Z,2.57
2019-03-22T19:20:40.504Z,2.60
2019-03-22T19:23:08.047Z,2.40
2019-03-22T19:25:36.862Z,2.83
2019-03-22T19:28:04.459Z,3.00
2019-03-22T19:30:32.933Z,3.10
2019-03-22T19:33:00.527Z,3.90
2019-03-22T19:35:28.871Z,2.97
2019-03-22T19:37:58.087Z,3.17
2019-03-22T19:40:26.241Z,3.40
2019-03-22T19:42:54.440Z,3.73
2019-03-22T19:45:22.021Z,3.57
2019-03-22T19:47:50.731Z,2.80
2019-03-22T19:50:18.363Z,2.70
2019-03-22T19:52:46.896Z,2.70
2019-03-22T19:55:15.359Z,2.87
2019-03-22T19:57:43.781Z,2.60
2019-03-22T20:00:12.540Z,2.90
2019-03-22T20:02:40.619Z,4.30
2019-03-22T20:05:09.235Z,2.70
2019-03-22T20:07:37.288Z,2.33
2019-03-22T20:10:06.408Z,2.83
2019-03-22T20:12:34.089Z,2.63
2019-03-22T20:15:03.123Z,2.80
2019-03-22T20:17:30.667Z,2.67
2019-03-22T20:20:01.428Z,9.53
2019-03-22T20:22:29.719Z,8.27
2019-03-22T20:24:58.077Z,8.67
2019-03-22T20:27:25.732Z,3.97
2019-03-22T20:29:53.952Z,4.20
2019-03-22T20:32:21.431Z,3.50
2019-03-22T20:34:50.002Z,2.60
2019-03-22T20:37:17.671Z,2.33
2019-03-22T20:39:45.201Z,2.63
2019-03-22T20:42:12.834Z,2.43
2019-03-22T20:44:40.500Z,2.90
2019-03-22T20:47:08.363Z,2.53
2019-03-22T20:49:37.912Z,2.63
2019-03-22T20:52:06.205Z,2.40
2019-03-22T20:54:34.956Z,2.80
2019-03-22T20:57:03.346Z,2.83
2019-03-22T20:59:31.333Z,2.83
2019-03-22T21:01:59.080Z,2.80
2019-03-22T21:04:28.443Z,3.17
2019-03-22T21:06:56.368Z,2.73
2019-03-22T21:09:24.303Z,4.23
2019-03-22T21:11:52.472Z,2.90
2019-03-22T21:14:20.710Z,2.30
2019-03-22T21:16:49.638Z,2.60
2019-03-22T21:19:17.873Z,3.27
2019-03-22T21:21:46.335Z,2.93
2019-03-22T21:24:15.307Z,2.73
2019-03-22T21:26:43.172Z,3.20
2019-03-22T21:29:10.932Z,3.13
2019-03-22T21:31:39.127Z,2.80
2019-03-22T21:34:07.176Z,2.80
2019-03-22T21:36:35.352Z,3.23
2019-03-22T21:39:06.004Z,3.13
2019-03-22T21:41:33.501Z,3.00
2019-03-22T21:44:02.273Z,2.97
2019-03-22T21:46:30.231Z,2.93
2019-03-22T21:48:57.931Z,3.43
2019-03-22T21:51:26.984Z,2.80
2019-03-22T21:53:54.898Z,2.80
2019-03-22T21:56:22.455Z,3.30
2019-03-22T21:58:50.219Z,2.87
2019-03-22T22:01:17.943Z,3.03
2019-03-22T22:03:46.487Z,3.60
2019-03-22T22:06:16.211Z,3.20
2019-03-22T22:08:44.363Z,3.30
2019-03-22T22:11:13.819Z,3.77
2019-03-22T22:13:42.912Z,3.40
2019-03-22T22:16:12.183Z,3.03
2019-03-22T22:18:41.012Z,3.00
2019-03-22T22:21:08.900Z,2.90
2019-03-22T22:23:36.887Z,2.90
2019-03-22T22:26:05.004Z,2.87
2019-03-22T22:28:32.556Z,3.13
2019-03-22T22:31:00.008Z,4.60
2019-03-22T22:33:29.431Z,4.43
2019-03-22T22:35:58.917Z,4.70
2019-03-22T22:38:26.795Z,4.37
2019-03-22T22:40:54.555Z,6.03
2019-03-22T22:43:22.703Z,3.53
2019-03-22T22:45:51.128Z,3.30
2019-03-22T22:48:18.503Z,3.73
2019-03-22T22:50:46.294Z,3.17
2019-03-22T22:53:15.659Z,2.80
2019-03-22T22:55:44.056Z,2.90
2019-03-22T22:58:13.735Z,2.90
2019-03-22T23:00:42.179Z,4.60
2019-03-22T23:03:09.907Z,5.90
2019-03-22T23:05:38.807Z,8.10
2019-03-22T23:08:06.999Z,7.43
2019-03-22T23:10:35.239Z,7.40
2019-03-22T23:13:04.576Z,6.47
2019-03-22T23:15:34.391Z,6.73
2019-03-22T23:18:02.107Z,3.53
2019-03-22T23:20:29.879Z,3.70
2019-03-22T23:22:57.579Z,4.40
2019-03-22T23:25:26.327Z,3.30
2019-03-22T23:27:55.611Z,4.60
2019-03-22T23:30:23.672Z,5.37
2019-03-22T23:32:51.917Z,5.13
2019-03-22T23:35:20.293Z,5.13
2019-03-22T23:37:48.548Z,4.97
2019-03-22T23:40:16.435Z,5.30
2019-03-22T23:42:44.607Z,4.73
2019-03-22T23:45:14.188Z,4.13
2019-03-22T23:47:43.663Z,3.80
2019-03-22T23:50:13.254Z,3.60
2019-03-22T23:52:40.671Z,4.13
2019-03-22T23:55:10.504Z,5.13
2019-03-22T23:57:38.151Z,5.67
